createdAt,value
2023-03-02T18:27:55.435Z,32.80
2023-03-02T18:33:00.084Z,27.65
2023-03-02T18:38:04.599Z,38.45
2023-03-02T18:43:10.857Z,56.70
2023-03-02T18:48:15.408Z,46.08
2023-03-02T18:53:20.016Z,40.33
2023-03-02T18:58:26.553Z,34.38
2023-03-02T19:03:31.692Z,35.38
2023-03-02T19:08:36.537Z,35.28
2023-03-02T19:13:42.667Z,32.55
2023-03-02T19:18:48.769Z,39.38
2023-03-02T19:23:53.248Z,39.85
2023-03-02T19:28:59.292Z,39.35
2023-03-02T19:39:08.765Z,45.75
2023-03-02T19:44:16.664Z,42.35
2023-03-02T19:49:21.154Z,42.03
2023-03-02T19:54:25.960Z,44.28
2023-03-02T19:59:32.610Z,73.00
2023-03-02T20:04:37.305Z,125.30
2023-03-02T20:09:42.801Z,107.18
2023-03-02T20:14:49.456Z,84.68
2023-03-02T20:19:56.032Z,74.70
2023-03-02T20:25:00.573Z,59.17
2023-03-02T20:30:12.079Z,51.55
2023-03-02T20:35:16.648Z,51.55
2023-03-02T20:40:23.793Z,52.28
2023-03-02T20:45:30.670Z,54.65
2023-03-02T20:50:36.307Z,55.53
2023-03-02T20:55:40.903Z,57.28
2023-03-02T21:00:47.031Z,59.25
2023-03-02T21:10:55.989Z,81.18
2023-03-02T21:16:02.282Z,69.88
2023-03-02T21:21:07.812Z,69.68
2023-03-02T21:26:13.242Z,90.28
2023-03-02T21:31:19.735Z,86.47
2023-03-02T21:36:26.203Z,82.38
2023-03-02T21:41:30.760Z,88.55
2023-03-02T21:46:38.452Z,147.80
2023-03-02T21:51:43.317Z,196.50
2023-03-02T21:56:47.759Z,98.63
2023-03-02T22:01:53.628Z,243.95
2023-03-02T22:12:02.388Z,201.63
2023-03-02T22:17:18.210Z,122.22
2023-03-02T22:22:27.885Z,71.00
2023-03-02T22:27:34.780Z,100.05
2023-03-02T22:32:40.672Z,162.50
2023-03-02T22:42:49.325Z,93.40
2023-03-02T22:47:55.699Z,75.68
2023-03-02T22:53:11.078Z,120.10
2023-03-02T22:58:40.496Z,125.53
2023-03-02T23:03:47.900Z,237.40
2023-03-02T23:08:52.886Z,319.92
2023-03-02T23:13:57.410Z,182.55
2023-03-02T23:19:04.393Z,138.25
2023-03-02T23:24:09.940Z,101.35
2023-03-02T23:29:14.481Z,129.07
2023-03-02T23:34:20.442Z,83.72
2023-03-02T23:44:29.182Z,78.38
2023-03-02T23:49:35.139Z,91.63
2023-03-02T23:59:43.869Z,127.22
